sensor_id;sensor_type;location;lat;lon;timestamp;P1;durP1;ratioP1;P2;durP2;ratioP2
46006;SDS011;31738;50.188;8.524;2024-03-23T00:53:01;21.88;;;10.02;;
46006;SDS011;31738;50.188;8.524;2024-03-23T00:55:27;19.05;;;8.88;;
46006;SDS011;31738;50.188;8.524;2024-03-23T00:57:52;19.98;;;9.68;;
46006;SDS011;31738;50.188;8.524;2024-03-23T01:00:18;26.25;;;10.65;;
46006;SDS011;31738;50.188;8.524;2024-03-23T01:02:43;19.63;;;9.55;;
46006;SDS011;31738;50.188;8.524;2024-03-23T01:05:09;26.25;;;11.05;;
46006;SDS011;31738;50.188;8.524;2024-03-23T01:07:34;20.05;;;10.80;;
46006;SDS011;31738;50.188;8.524;2024-03-23T01:10:00;17.40;;;9.50;;
46006;SDS011;31738;50.188;8.524;2024-03-23T01:12:25;22.40;;;9.35;;
46006;SDS011;31738;50.188;8.524;2024-03-23T01:14:51;23.38;;;10.02;;
46006;SDS011;31738;50.188;8.524;2024-03-23T01:17:16;23.35;;;10.02;;
46006;SDS011;31738;50.188;8.524;2024-03-23T01:19:42;19.90;;;9.93;;
46006;SDS011;31738;50.188;8.524;2024-03-23T01:22:07;20.25;;;10.52;;
46006;SDS011;31738;50.188;8.524;2024-03-23T01:24:35;23.17;;;10.27;;
46006;SDS011;31738;50.188;8.524;2024-03-23T01:27:01;21.77;;;10.35;;
46006;SDS011;31738;50.188;8.524;2024-03-23T01:29:26;26.42;;;11.05;;
46006;SDS011;31738;50.188;8.524;2024-03-23T01:31:52;21.25;;;9.68;;
46006;SDS011;31738;50.188;8.524;2024-03-23T01:34:17;18.83;;;10.07;;
46006;SDS011;31738;50.188;8.524;2024-03-23T01:36:44;21.40;;;10.23;;
46006;SDS011;31738;50.188;8.524;2024-03-23T01:39:11;20.83;;;9.88;;
46006;SDS011;31738;50.188;8.524;2024-03-23T01:41:37;17.95;;;8.73;;
46006;SDS011;31738;50.188;8.524;2024-03-23T01:44:05;18.92;;;8.82;;
46006;SDS011;31738;50.188;8.524;2024-03-23T01:46:32;20.20;;;9.02;;
46006;SDS011;31738;50.188;8.524;2024-03-23T01:48:58;18.48;;;8.10;;
46006;SDS011;31738;50.188;8.524;2024-03-23T01:51:24;20.00;;;9.10;;
46006;SDS011;31738;50.188;8.524;2024-03-23T01:53:50;19.08;;;9.00;;
46006;SDS011;31738;50.188;8.524;2024-03-23T01:56:16;22.13;;;9.70;;
46006;SDS011;31738;50.188;8.524;2024-03-23T01:58:41;18.40;;;9.20;;
46006;SDS011;31738;50.188;8.524;2024-03-23T02:01:13;21.23;;;9.45;;
46006;SDS011;31738;50.188;8.524;2024-03-23T02:03:39;19.55;;;9.13;;
46006;SDS011;31738;50.188;8.524;2024-03-23T02:06:04;22.60;;;9.93;;
46006;SDS011;31738;50.188;8.524;2024-03-23T02:08:32;26.45;;;9.40;;
46006;SDS011;31738;50.188;8.524;2024-03-23T02:10:58;20.02;;;10.05;;
46006;SDS011;31738;50.188;8.524;2024-03-23T02:13:24;22.60;;;9.93;;
46006;SDS011;31738;50.188;8.524;2024-03-23T02:15:49;22.80;;;9.85;;
46006;SDS011;31738;50.188;8.524;2024-03-23T02:18:15;20.83;;;9.80;;
46006;SDS011;31738;50.188;8.524;2024-03-23T02:20:40;23.65;;;9.68;;
46006;SDS011;31738;50.188;8.524;2024-03-23T02:23:06;24.92;;;11.20;;
46006;SDS011;31738;50.188;8.524;2024-03-23T02:25:38;23.60;;;10.35;;
46006;SDS011;31738;50.188;8.524;2024-03-23T02:28:03;24.13;;;10.55;;
46006;SDS011;31738;50.188;8.524;2024-03-23T02:30:29;23.25;;;10.05;;
46006;SDS011;31738;50.188;8.524;2024-03-23T02:32:55;22.23;;;11.20;;
46006;SDS011;31738;50.188;8.524;2024-03-23T02:35:21;25.80;;;11.65;;
46006;SDS011;31738;50.188;8.524;2024-03-23T02:37:46;26.02;;;11.38;;
46006;SDS011;31738;50.188;8.524;2024-03-23T02:40:14;24.27;;;10.95;;
46006;SDS011;31738;50.188;8.524;2024-03-23T02:42:40;23.83;;;10.68;;
46006;SDS011;31738;50.188;8.524;2024-03-23T02:45:06;21.50;;;10.52;;
46006;SDS011;31738;50.188;8.524;2024-03-23T02:47:32;26.67;;;11.13;;
46006;SDS011;31738;50.188;8.524;2024-03-23T02:49:57;26.42;;;11.45;;
46006;SDS011;31738;50.188;8.524;2024-03-23T02:52:23;25.38;;;11.07;;
46006;SDS011;31738;50.188;8.524;2024-03-23T02:54:48;23.55;;;10.60;;
46006;SDS011;31738;50.188;8.524;2024-03-23T02:57:14;27.45;;;11.27;;
46006;SDS011;31738;50.188;8.524;2024-03-23T02:59:40;22.33;;;10.02;;
46006;SDS011;31738;50.188;8.524;2024-03-23T03:02:06;26.55;;;10.50;;
46006;SDS011;31738;50.188;8.524;2024-03-23T03:04:31;27.60;;;12.00;;
46006;SDS011;31738;50.188;8.524;2024-03-23T03:06:57;27.13;;;11.15;;
46006;SDS011;31738;50.188;8.524;2024-03-23T03:09:23;26.40;;;11.40;;
46006;SDS011;31738;50.188;8.524;2024-03-23T03:11:48;28.25;;;12.13;;
46006;SDS011;31738;50.188;8.524;2024-03-23T03:14:14;25.02;;;11.65;;
46006;SDS011;31738;50.188;8.524;2024-03-23T03:16:39;28.10;;;11.25;;
46006;SDS011;31738;50.188;8.524;2024-03-23T03:19:04;23.88;;;11.65;;
46006;SDS011;31738;50.188;8.524;2024-03-23T03:21:31;24.30;;;11.50;;
46006;SDS011;31738;50.188;8.524;2024-03-23T03:23:57;31.15;;;13.25;;
46006;SDS011;31738;50.188;8.524;2024-03-23T03:26:23;28.48;;;13.40;;
46006;SDS011;31738;50.188;8.524;2024-03-23T03:28:50;35.72;;;14.57;;
46006;SDS011;31738;50.188;8.524;2024-03-23T03:31:16;36.90;;;13.82;;
46006;SDS011;31738;50.188;8.524;2024-03-23T03:33:41;36.88;;;14.70;;
46006;SDS011;31738;50.188;8.524;2024-03-23T03:36:07;32.30;;;13.95;;
46006;SDS011;31738;50.188;8.524;2024-03-23T03:38:33;29.92;;;13.77;;
46006;SDS011;31738;50.188;8.524;2024-03-23T03:41:00;38.20;;;15.63;;
46006;SDS011;31738;50.188;8.524;2024-03-23T03:43:27;32.92;;;13.80;;
46006;SDS011;31738;50.188;8.524;2024-03-23T03:45:53;35.05;;;14.38;;
46006;SDS011;31738;50.188;8.524;2024-03-23T03:48:19;38.10;;;15.82;;
46006;SDS011;31738;50.188;8.524;2024-03-23T03:50:44;37.17;;;16.25;;
46006;SDS011;31738;50.188;8.524;2024-03-23T03:53:09;44.33;;;17.08;;
46006;SDS011;31738;50.188;8.524;2024-03-23T03:55:35;39.15;;;15.13;;
46006;SDS011;31738;50.188;8.524;2024-03-23T03:58:00;38.90;;;13.90;;
46006;SDS011;31738;50.188;8.524;2024-03-23T04:00:26;24.40;;;9.85;;
46006;SDS011;31738;50.188;8.524;2024-03-23T04:02:51;14.05;;;7.00;;
46006;SDS011;31738;50.188;8.524;2024-03-23T04:05:17;16.67;;;6.80;;
46006;SDS011;31738;50.188;8.524;2024-03-23T04:07:42;8.50;;;4.57;;
46006;SDS011;31738;50.188;8.524;2024-03-23T04:10:08;8.90;;;3.78;;
46006;SDS011;31738;50.188;8.524;2024-03-23T04:12:34;8.98;;;3.75;;
46006;SDS011;31738;50.188;8.524;2024-03-23T04:15:00;5.93;;;2.97;;
46006;SDS011;31738;50.188;8.524;2024-03-23T04:17:28;2.95;;;1.65;;
46006;SDS011;31738;50.188;8.524;2024-03-23T04:19:57;4.30;;;1.75;;
46006;SDS011;31738;50.188;8.524;2024-03-23T04:22:23;2.10;;;1.40;;
46006;SDS011;31738;50.188;8.524;2024-03-23T04:24:52;1.48;;;0.98;;
46006;SDS011;31738;50.188;8.524;2024-03-23T04:27:23;2.38;;;0.85;;
46006;SDS011;31738;50.188;8.524;2024-03-23T04:29:49;2.90;;;1.00;;
46006;SDS011;31738;50.188;8.524;2024-03-23T04:32:15;0.95;;;0.60;;
46006;SDS011;31738;50.188;8.524;2024-03-23T04:34:41;0.63;;;0.38;;
46006;SDS011;31738;50.188;8.524;2024-03-23T04:37:08;0.70;;;0.40;;
46006;SDS011;31738;50.188;8.524;2024-03-23T04:39:35;0.60;;;0.40;;
46006;SDS011;31738;50.188;8.524;2024-03-23T04:42:01;0.70;;;0.32;;
46006;SDS011;31738;50.188;8.524;2024-03-23T04:44:28;1.02;;;0.47;;
46006;SDS011;31738;50.188;8.524;2024-03-23T04:46:53;0.55;;;0.40;;
46006;SDS011;31738;50.188;8.524;2024-03-23T04:49:19;0.38;;;0.35;;
46006;SDS011;31738;50.188;8.524;2024-03-23T04:51:44;1.67;;;1.05;;
46006;SDS011;31738;50.188;8.524;2024-03-23T04:54:14;1.63;;;0.90;;
46006;SDS011;31738;50.188;8.524;2024-03-23T04:56:40;1.52;;;1.05;;
46006;SDS011;31738;50.188;8.524;2024-03-23T04:59:06;1.67;;;1.10;;
46006;SDS011;31738;50.188;8.524;2024-03-23T05:01:32;1.05;;;0.80;;
46006;SDS011;31738;50.188;8.524;2024-03-23T05:04:02;2.22;;;1.23;;
46006;SDS011;31738;50.188;8.524;2024-03-23T05:06:27;1.77;;;1.30;;
46006;SDS011;31738;50.188;8.524;2024-03-23T05:08:53;2.78;;;1.67;;
46006;SDS011;31738;50.188;8.524;2024-03-23T05:11:18;2.58;;;1.55;;
46006;SDS011;31738;50.188;8.524;2024-03-23T05:13:44;2.83;;;1.40;;
46006;SDS011;31738;50.188;8.524;2024-03-23T05:16:09;2.00;;;1.17;;
46006;SDS011;31738;50.188;8.524;2024-03-23T05:18:35;1.90;;;1.23;;
46006;SDS011;31738;50.188;8.524;2024-03-23T05:21:00;2.88;;;1.10;;
46006;SDS011;31738;50.188;8.524;2024-03-23T05:23:28;3.92;;;1.65;;
46006;SDS011;31738;50.188;8.524;2024-03-23T05:25:54;1.73;;;1.15;;
46006;SDS011;31738;50.188;8.524;2024-03-23T05:28:20;1.48;;;1.20;;
46006;SDS011;31738;50.188;8.524;2024-03-23T05:30:50;3.55;;;1.45;;
46006;SDS011;31738;50.188;8.524;2024-03-23T05:33:17;1.98;;;1.25;;
46006;SDS011;31738;50.188;8.524;2024-03-23T05:35:44;5.22;;;1.80;;
46006;SDS011;31738;50.188;8.524;2024-03-23T05:38:09;4.15;;;1.70;;
46006;SDS011;31738;50.188;8.524;2024-03-23T05:40:35;2.55;;;1.63;;
46006;SDS011;31738;50.188;8.524;2024-03-23T05:43:02;3.38;;;2.13;;
46006;SDS011;31738;50.188;8.524;2024-03-23T05:45:29;4.15;;;1.98;;
46006;SDS011;31738;50.188;8.524;2024-03-23T05:47:54;2.75;;;1.60;;
46006;SDS011;31738;50.188;8.524;2024-03-23T05:50:22;2.35;;;1.50;;
46006;SDS011;31738;50.188;8.524;2024-03-23T05:52:48;2.22;;;1.20;;
46006;SDS011;31738;50.188;8.524;2024-03-23T05:55:14;1.55;;;1.08;;
46006;SDS011;31738;50.188;8.524;2024-03-23T05:57:40;1.23;;;0.70;;
46006;SDS011;31738;50.188;8.524;2024-03-23T06:00:05;1.52;;;0.65;;
46006;SDS011;31738;50.188;8.524;2024-03-23T06:02:37;0.85;;;0.50;;
46006;SDS011;31738;50.188;8.524;2024-03-23T06:05:02;3.17;;;0.60;;
46006;SDS011;31738;50.188;8.524;2024-03-23T06:07:28;0.38;;;0.30;;
46006;SDS011;31738;50.188;8.524;2024-03-23T06:09:53;0.30;;;0.30;;
46006;SDS011;31738;50.188;8.524;2024-03-23T06:12:19;0.63;;;0.30;;
46006;SDS011;31738;50.188;8.524;2024-03-23T06:14:46;1.27;;;0.40;;
46006;SDS011;31738;50.188;8.524;2024-03-23T06:17:13;0.60;;;0.32;;
46006;SDS011;31738;50.188;8.524;2024-03-23T06:19:39;0.28;;;0.20;;
46006;SDS011;31738;50.188;8.524;2024-03-23T06:22:04;0.20;;;0.10;;
46006;SDS011;31738;50.188;8.524;2024-03-23T06:24:32;0.17;;;0.10;;
46006;SDS011;31738;50.188;8.524;2024-03-23T06:26:57;0.63;;;0.30;;
46006;SDS011;31738;50.188;8.524;2024-03-23T06:29:22;0.40;;;0.20;;
46006;SDS011;31738;50.188;8.524;2024-03-23T06:31:54;0.10;;;0.10;;
46006;SDS011;31738;50.188;8.524;2024-03-23T06:34:20;4.10;;;0.30;;
46006;SDS011;31738;50.188;8.524;2024-03-23T06:36:47;1.05;;;0.43;;
46006;SDS011;31738;50.188;8.524;2024-03-23T06:39:12;0.57;;;0.40;;
46006;SDS011;31738;50.188;8.524;2024-03-23T06:41:41;0.50;;;0.40;;
46006;SDS011;31738;50.188;8.524;2024-03-23T06:44:25;1.98;;;0.30;;
46006;SDS011;31738;50.188;8.524;2024-03-23T06:46:50;1.90;;;0.52;;
46006;SDS011;31738;50.188;8.524;2024-03-23T06:49:15;0.82;;;0.73;;
46006;SDS011;31738;50.188;8.524;2024-03-23T06:51:41;1.00;;;0.60;;
46006;SDS011;31738;50.188;8.524;2024-03-23T06:54:06;3.55;;;0.88;;
46006;SDS011;31738;50.188;8.524;2024-03-23T06:56:32;2.17;;;0.80;;
46006;SDS011;31738;50.188;8.524;2024-03-23T06:58:58;3.40;;;0.95;;
46006;SDS011;31738;50.188;8.524;2024-03-23T07:01:24;2.47;;;0.80;;
46006;SDS011;31738;50.188;8.524;2024-03-23T07:03:49;3.17;;;1.08;;
46006;SDS011;31738;50.188;8.524;2024-03-23T07:06:15;1.63;;;0.85;;
46006;SDS011;31738;50.188;8.524;2024-03-23T07:08:40;2.53;;;1.10;;
46006;SDS011;31738;50.188;8.524;2024-03-23T07:11:06;4.10;;;0.95;;
46006;SDS011;31738;50.188;8.524;2024-03-23T07:13:31;7.57;;;1.20;;
46006;SDS011;31738;50.188;8.524;2024-03-23T07:15:57;4.57;;;1.42;;
46006;SDS011;31738;50.188;8.524;2024-03-23T07:18:23;3.88;;;1.65;;
46006;SDS011;31738;50.188;8.524;2024-03-23T07:20:52;8.40;;;1.75;;
46006;SDS011;31738;50.188;8.524;2024-03-23T07:23:26;3.78;;;1.70;;
46006;SDS011;31738;50.188;8.524;2024-03-23T07:26:01;5.85;;;1.52;;
46006;SDS011;31738;50.188;8.524;2024-03-23T07:28:28;6.72;;;2.10;;
46006;SDS011;31738;50.188;8.524;2024-03-23T07:31:03;7.22;;;2.20;;
46006;SDS011;31738;50.188;8.524;2024-03-23T07:33:45;4.57;;;1.73;;
46006;SDS011;31738;50.188;8.524;2024-03-23T07:36:12;6.78;;;1.88;;
46006;SDS011;31738;50.188;8.524;2024-03-23T07:38:41;7.35;;;2.35;;
46006;SDS011;31738;50.188;8.524;2024-03-23T07:41:08;7.85;;;2.55;;
46006;SDS011;31738;50.188;8.524;2024-03-23T07:43:35;8.95;;;2.75;;
46006;SDS011;31738;50.188;8.524;2024-03-23T07:46:02;13.23;;;3.35;;
46006;SDS011;31738;50.188;8.524;2024-03-23T07:48:29;7.15;;;3.65;;
46006;SDS011;31738;50.188;8.524;2024-03-23T07:50:56;8.57;;;4.15;;
46006;SDS011;31738;50.188;8.524;2024-03-23T07:53:32;11.98;;;4.85;;
46006;SDS011;31738;50.188;8.524;2024-03-23T07:55:59;14.45;;;4.93;;
46006;SDS011;31738;50.188;8.524;2024-03-23T07:58:26;10.43;;;4.70;;
46006;SDS011;31738;50.188;8.524;2024-03-23T08:00:52;12.82;;;5.32;;
46006;SDS011;31738;50.188;8.524;2024-03-23T08:03:18;8.52;;;5.03;;
46006;SDS011;31738;50.188;8.524;2024-03-23T08:05:45;10.95;;;5.30;;
46006;SDS011;31738;50.188;8.524;2024-03-23T08:08:10;9.18;;;5.13;;
46006;SDS011;31738;50.188;8.524;2024-03-23T08:10:37;14.27;;;5.53;;
46006;SDS011;31738;50.188;8.524;2024-03-23T08:13:03;12.85;;;5.82;;
46006;SDS011;31738;50.188;8.524;2024-03-23T08:15:31;11.48;;;5.35;;
46006;SDS011;31738;50.188;8.524;2024-03-23T08:17:58;15.68;;;5.40;;
46006;SDS011;31738;50.188;8.524;2024-03-23T08:20:24;10.48;;;5.32;;
46006;SDS011;31738;50.188;8.524;2024-03-23T08:22:50;13.18;;;4.90;;
46006;SDS011;31738;50.188;8.524;2024-03-23T08:25:15;13.13;;;5.53;;
46006;SDS011;31738;50.188;8.524;2024-03-23T08:27:43;12.40;;;4.78;;
46006;SDS011;31738;50.188;8.524;2024-03-23T08:30:09;12.80;;;5.28;;
46006;SDS011;31738;50.188;8.524;2024-03-23T08:32:36;13.32;;;4.60;;
46006;SDS011;31738;50.188;8.524;2024-03-23T08:35:01;16.60;;;4.68;;
46006;SDS011;31738;50.188;8.524;2024-03-23T08:37:27;14.95;;;4.75;;
46006;SDS011;31738;50.188;8.524;2024-03-23T08:39:52;7.07;;;3.88;;
46006;SDS011;31738;50.188;8.524;2024-03-23T08:42:18;12.05;;;4.55;;
46006;SDS011;31738;50.188;8.524;2024-03-23T08:44:43;11.27;;;4.03;;
46006;SDS011;31738;50.188;8.524;2024-03-23T08:47:11;9.88;;;3.60;;
46006;SDS011;31738;50.188;8.524;2024-03-23T08:49:37;12.65;;;3.60;;
46006;SDS011;31738;50.188;8.524;2024-03-23T08:52:02;8.13;;;3.70;;
46006;SDS011;31738;50.188;8.524;2024-03-23T08:54:28;7.60;;;3.20;;
46006;SDS011;31738;50.188;8.524;2024-03-23T08:56:54;8.70;;;4.10;;
46006;SDS011;31738;50.188;8.524;2024-03-23T08:59:19;14.55;;;3.47;;
46006;SDS011;31738;50.188;8.524;2024-03-23T09:01:45;13.05;;;4.07;;
46006;SDS011;31738;50.188;8.524;2024-03-23T09:04:10;8.40;;;3.60;;
46006;SDS011;31738;50.188;8.524;2024-03-23T09:06:36;9.13;;;3.67;;
46006;SDS011;31738;50.188;8.524;2024-03-23T09:09:01;12.60;;;3.47;;
46006;SDS011;31738;50.188;8.524;2024-03-23T09:11:27;15.13;;;4.55;;
46006;SDS011;31738;50.188;8.524;2024-03-23T09:13:52;11.77;;;4.05;;
46006;SDS011;31738;50.188;8.524;2024-03-23T09:16:18;12.27;;;4.10;;
46006;SDS011;31738;50.188;8.524;2024-03-23T09:18:43;12.88;;;3.80;;
46006;SDS011;31738;50.188;8.524;2024-03-23T09:21:13;19.50;;;4.72;;
46006;SDS011;31738;50.188;8.524;2024-03-23T09:23:40;14.90;;;4.25;;
46006;SDS011;31738;50.188;8.524;2024-03-23T09:26:08;13.63;;;4.22;;
46006;SDS011;31738;50.188;8.524;2024-03-23T09:28:33;18.90;;;4.15;;
46006;SDS011;31738;50.188;8.524;2024-03-23T09:31:02;18.52;;;4.38;;
46006;SDS011;31738;50.188;8.524;2024-03-23T09:33:28;13.65;;;3.63;;
46006;SDS011;31738;50.188;8.524;2024-03-23T09:35:54;14.50;;;3.60;;
46006;SDS011;31738;50.188;8.524;2024-03-23T09:38:20;13.98;;;4.30;;
46006;SDS011;31738;50.188;8.524;2024-03-23T09:40:46;12.10;;;3.63;;
46006;SDS011;31738;50.188;8.524;2024-03-23T09:43:15;10.82;;;2.97;;
46006;SDS011;31738;50.188;8.524;2024-03-23T09:45:40;14.93;;;3.72;;
46006;SDS011;31738;50.188;8.524;2024-03-23T09:48:09;10.05;;;2.92;;
46006;SDS011;31738;50.188;8.524;2024-03-23T09:53:04;11.00;;;2.22;;
46006;SDS011;31738;50.188;8.524;2024-03-23T09:55:31;7.00;;;2.33;;
46006;SDS011;31738;50.188;8.524;2024-03-23T09:57:57;9.82;;;2.47;;
46006;SDS011;31738;50.188;8.524;2024-03-23T10:00:23;14.75;;;2.20;;
46006;SDS011;31738;50.188;8.524;2024-03-23T10:02:48;5.63;;;1.80;;
46006;SDS011;31738;50.188;8.524;2024-03-23T10:05:20;6.40;;;1.90;;
46006;SDS011;31738;50.188;8.524;2024-03-23T10:07:50;10.82;;;2.50;;
46006;SDS011;31738;50.188;8.524;2024-03-23T10:10:16;8.13;;;1.70;;
46006;SDS011;31738;50.188;8.524;2024-03-23T10:12:46;9.65;;;2.63;;
46006;SDS011;31738;50.188;8.524;2024-03-23T10:15:20;6.47;;;2.17;;
46006;SDS011;31738;50.188;8.524;2024-03-23T10:17:51;9.60;;;1.92;;
46006;SDS011;31738;50.188;8.524;2024-03-23T10:20:20;6.68;;;1.77;;
46006;SDS011;31738;50.188;8.524;2024-03-23T10:22:48;7.47;;;2.03;;
46006;SDS011;31738;50.188;8.524;2024-03-23T10:25:14;12.05;;;1.85;;
46006;SDS011;31738;50.188;8.524;2024-03-23T10:27:40;8.73;;;2.00;;
46006;SDS011;31738;50.188;8.524;2024-03-23T10:30:09;4.80;;;1.27;;
46006;SDS011;31738;50.188;8.524;2024-03-23T10:32:35;6.72;;;1.40;;
46006;SDS011;31738;50.188;8.524;2024-03-23T10:35:13;8.48;;;1.60;;
46006;SDS011;31738;50.188;8.524;2024-03-23T10:37:40;5.60;;;1.45;;
46006;SDS011;31738;50.188;8.524;2024-03-23T10:40:06;6.95;;;1.30;;
46006;SDS011;31738;50.188;8.524;2024-03-23T10:42:32;6.88;;;1.42;;
46006;SDS011;31738;50.188;8.524;2024-03-23T10:44:58;7.57;;;1.98;;
46006;SDS011;31738;50.188;8.524;2024-03-23T10:47:25;7.10;;;1.80;;
46006;SDS011;31738;50.188;8.524;2024-03-23T10:49:51;8.57;;;1.92;;
46006;SDS011;31738;50.188;8.524;2024-03-23T10:52:16;7.45;;;1.52;;
46006;SDS011;31738;50.188;8.524;2024-03-23T10:54:42;6.15;;;1.98;;
46006;SDS011;31738;50.188;8.524;2024-03-23T10:57:15;10.13;;;1.80;;
46006;SDS011;31738;50.188;8.524;2024-03-23T10:59:43;8.10;;;1.88;;
46006;SDS011;31738;50.188;8.524;2024-03-23T11:02:20;6.72;;;1.95;;
46006;SDS011;31738;50.188;8.524;2024-03-23T11:04:46;4.07;;;1.17;;
46006;SDS011;31738;50.188;8.524;2024-03-23T11:09:49;5.70;;;1.60;;
46006;SDS011;31738;50.188;8.524;2024-03-23T11:14:49;4.95;;;1.52;;
46006;SDS011;31738;50.188;8.524;2024-03-23T11:17:19;5.45;;;1.40;;
46006;SDS011;31738;50.188;8.524;2024-03-23T11:22:37;4.00;;;1.58;;
46006;SDS011;31738;50.188;8.524;2024-03-23T11:25:16;8.27;;;1.73;;
46006;SDS011;31738;50.188;8.524;2024-03-23T11:27:55;6.88;;;2.25;;
46006;SDS011;31738;50.188;8.524;2024-03-23T11:31:46;3.88;;;1.63;;
46006;SDS011;31738;50.188;8.524;2024-03-23T11:34:34;5.15;;;1.83;;
46006;SDS011;31738;50.188;8.524;2024-03-23T11:37:05;12.02;;;2.20;;
46006;SDS011;31738;50.188;8.524;2024-03-23T11:40:17;7.57;;;2.05;;
46006;SDS011;31738;50.188;8.524;2024-03-23T11:42:58;5.68;;;1.90;;
46006;SDS011;31738;50.188;8.524;2024-03-23T11:45:24;4.78;;;2.17;;
46006;SDS011;31738;50.188;8.524;2024-03-23T11:48:02;9.52;;;2.35;;
46006;SDS011;31738;50.188;8.524;2024-03-23T11:50:31;8.05;;;1.70;;
46006;SDS011;31738;50.188;8.524;2024-03-23T11:55:49;5.28;;;2.20;;
46006;SDS011;31738;50.188;8.524;2024-03-23T11:58:15;9.10;;;2.25;;
46006;SDS011;31738;50.188;8.524;2024-03-23T12:00:42;10.02;;;2.55;;
46006;SDS011;31738;50.188;8.524;2024-03-23T12:03:15;6.95;;;1.95;;
46006;SDS011;31738;50.188;8.524;2024-03-23T12:05:41;6.47;;;1.90;;
46006;SDS011;31738;50.188;8.524;2024-03-23T12:08:18;6.40;;;2.28;;
46006;SDS011;31738;50.188;8.524;2024-03-23T12:10:52;8.85;;;2.58;;
46006;SDS011;31738;50.188;8.524;2024-03-23T12:13:21;9.40;;;2.20;;
46006;SDS011;31738;50.188;8.524;2024-03-23T12:15:48;7.78;;;2.10;;
46006;SDS011;31738;50.188;8.524;2024-03-23T12:18:16;7.15;;;2.08;;
46006;SDS011;31738;50.188;8.524;2024-03-23T12:20:41;7.72;;;2.05;;
46006;SDS011;31738;50.188;8.524;2024-03-23T12:23:11;5.60;;;1.92;;
46006;SDS011;31738;50.188;8.524;2024-03-23T12:25:41;5.97;;;1.88;;
46006;SDS011;31738;50.188;8.524;2024-03-23T12:28:07;7.57;;;2.20;;
46006;SDS011;31738;50.188;8.524;2024-03-23T12:30:36;7.80;;;1.80;;
46006;SDS011;31738;50.188;8.524;2024-03-23T12:33:04;4.75;;;1.60;;
46006;SDS011;31738;50.188;8.524;2024-03-23T12:35:50;4.38;;;1.58;;
46006;SDS011;31738;50.188;8.524;2024-03-23T12:38:20;11.02;;;1.90;;
46006;SDS011;31738;50.188;8.524;2024-03-23T12:40:51;5.20;;;1.77;;
46006;SDS011;31738;50.188;8.524;2024-03-23T12:43:23;7.28;;;1.58;;
46006;SDS011;31738;50.188;8.524;2024-03-23T12:46:06;4.40;;;1.90;;
46006;SDS011;31738;50.188;8.524;2024-03-23T12:48:55;5.22;;;1.52;;
46006;SDS011;31738;50.188;8.524;2024-03-23T12:51:27;5.13;;;1.30;;
46006;SDS011;31738;50.188;8.524;2024-03-23T12:53:52;6.20;;;1.55;;
46006;SDS011;31738;50.188;8.524;2024-03-23T12:56:18;6.55;;;1.70;;
46006;SDS011;31738;50.188;8.524;2024-03-23T12:58:44;5.25;;;1.60;;
46006;SDS011;31738;50.188;8.524;2024-03-23T13:01:09;6.10;;;1.30;;
46006;SDS011;31738;50.188;8.524;2024-03-23T13:03:51;4.65;;;1.52;;
46006;SDS011;31738;50.188;8.524;2024-03-23T13:06:26;4.57;;;1.42;;
46006;SDS011;31738;50.188;8.524;2024-03-23T13:09:05;3.53;;;1.50;;
46006;SDS011;31738;50.188;8.524;2024-03-23T13:11:55;1.95;;;1.30;;
46006;SDS011;31738;50.188;8.524;2024-03-23T13:14:27;3.20;;;1.00;;
46006;SDS011;31738;50.188;8.524;2024-03-23T13:19:24;4.28;;;0.80;;
46006;SDS011;31738;50.188;8.524;2024-03-23T13:22:20;2.55;;;0.70;;
46006;SDS011;31738;50.188;8.524;2024-03-23T13:25:19;1.27;;;0.73;;
46006;SDS011;31738;50.188;8.524;2024-03-23T13:27:48;2.63;;;0.50;;
46006;SDS011;31738;50.188;8.524;2024-03-23T13:30:28;2.67;;;0.52;;
46006;SDS011;31738;50.188;8.524;2024-03-23T13:32:59;0.40;;;0.20;;
46006;SDS011;31738;50.188;8.524;2024-03-23T13:35:25;0.65;;;0.35;;
46006;SDS011;31738;50.188;8.524;2024-03-23T13:37:53;0.30;;;0.30;;
46006;SDS011;31738;50.188;8.524;2024-03-23T13:40:26;1.23;;;0.30;;
46006;SDS011;31738;50.188;8.524;2024-03-23T13:42:52;0.30;;;0.20;;
46006;SDS011;31738;50.188;8.524;2024-03-23T13:45:24;2.65;;;1.00;;
46006;SDS011;31738;50.188;8.524;2024-03-23T13:47:52;0.73;;;0.30;;
46006;SDS011;31738;50.188;8.524;2024-03-23T13:50:27;1.27;;;0.68;;
46006;SDS011;31738;50.188;8.524;2024-03-23T13:52:53;0.77;;;0.25;;
46006;SDS011;31738;50.188;8.524;2024-03-23T13:55:18;0.98;;;0.40;;
46006;SDS011;31738;50.188;8.524;2024-03-23T13:57:44;0.88;;;0.28;;
46006;SDS011;31738;50.188;8.524;2024-03-23T14:00:10;0.82;;;0.35;;
46006;SDS011;31738;50.188;8.524;2024-03-23T14:02:38;2.30;;;0.50;;
46006;SDS011;31738;50.188;8.524;2024-03-23T14:05:04;1.92;;;0.50;;
46006;SDS011;31738;50.188;8.524;2024-03-23T14:07:29;0.63;;;0.30;;
46006;SDS011;31738;50.188;8.524;2024-03-23T14:10:02;3.65;;;0.40;;
46006;SDS011;31738;50.188;8.524;2024-03-23T14:12:28;2.78;;;0.60;;
46006;SDS011;31738;50.188;8.524;2024-03-23T14:14:53;3.90;;;0.70;;
46006;SDS011;31738;50.188;8.524;2024-03-23T14:17:20;1.45;;;0.68;;
46006;SDS011;31738;50.188;8.524;2024-03-23T14:19:45;1.70;;;0.50;;
46006;SDS011;31738;50.188;8.524;2024-03-23T14:22:11;0.45;;;0.38;;
46006;SDS011;31738;50.188;8.524;2024-03-23T14:24:40;2.75;;;0.52;;
46006;SDS011;31738;50.188;8.524;2024-03-23T14:27:05;3.80;;;0.80;;
46006;SDS011;31738;50.188;8.524;2024-03-23T14:29:32;1.08;;;0.60;;
46006;SDS011;31738;50.188;8.524;2024-03-23T14:31:59;4.72;;;0.55;;
46006;SDS011;31738;50.188;8.524;2024-03-23T14:34:25;3.65;;;0.55;;
46006;SDS011;31738;50.188;8.524;2024-03-23T14:36:53;2.53;;;0.60;;
46006;SDS011;31738;50.188;8.524;2024-03-23T14:39:22;3.30;;;0.50;;
46006;SDS011;31738;50.188;8.524;2024-03-23T14:41:49;0.68;;;0.30;;
46006;SDS011;31738;50.188;8.524;2024-03-23T14:44:15;1.95;;;0.60;;
46006;SDS011;31738;50.188;8.524;2024-03-23T14:46:41;1.63;;;0.50;;
46006;SDS011;31738;50.188;8.524;2024-03-23T14:49:06;4.13;;;0.63;;
46006;SDS011;31738;50.188;8.524;2024-03-23T14:54:07;2.67;;;0.75;;
46006;SDS011;31738;50.188;8.524;2024-03-23T14:56:32;3.42;;;0.60;;
46006;SDS011;31738;50.188;8.524;2024-03-23T14:59:00;3.47;;;0.82;;
46006;SDS011;31738;50.188;8.524;2024-03-23T15:01:25;1.08;;;0.50;;
46006;SDS011;31738;50.188;8.524;2024-03-23T15:03:51;1.67;;;0.70;;
46006;SDS011;31738;50.188;8.524;2024-03-23T15:06:18;2.72;;;0.50;;
46006;SDS011;31738;50.188;8.524;2024-03-23T15:08:44;3.35;;;0.65;;
46006;SDS011;31738;50.188;8.524;2024-03-23T15:11:09;2.88;;;0.80;;
46006;SDS011;31738;50.188;8.524;2024-03-23T15:13:35;1.75;;;0.50;;
46006;SDS011;31738;50.188;8.524;2024-03-23T15:16:01;1.70;;;0.70;;
46006;SDS011;31738;50.188;8.524;2024-03-23T15:18:29;3.45;;;0.70;;
46006;SDS011;31738;50.188;8.524;2024-03-23T15:20:55;1.02;;;0.60;;
46006;SDS011;31738;50.188;8.524;2024-03-23T15:23:22;1.85;;;0.70;;
46006;SDS011;31738;50.188;8.524;2024-03-23T15:25:53;1.17;;;0.70;;
46006;SDS011;31738;50.188;8.524;2024-03-23T15:28:23;3.25;;;0.70;;
46006;SDS011;31738;50.188;8.524;2024-03-23T15:30:49;2.40;;;0.68;;
46006;SDS011;31738;50.188;8.524;2024-03-23T15:33:14;2.97;;;0.70;;
46006;SDS011;31738;50.188;8.524;2024-03-23T15:35:42;3.50;;;0.52;;
46006;SDS011;31738;50.188;8.524;2024-03-23T15:38:08;1.58;;;0.70;;
46006;SDS011;31738;50.188;8.524;2024-03-23T15:40:34;2.85;;;0.50;;
46006;SDS011;31738;50.188;8.524;2024-03-23T15:43:00;1.85;;;0.40;;
46006;SDS011;31738;50.188;8.524;2024-03-23T15:45:25;2.38;;;0.68;;
46006;SDS011;31738;50.188;8.524;2024-03-23T15:47:51;2.17;;;0.80;;
46006;SDS011;31738;50.188;8.524;2024-03-23T15:50:17;2.20;;;0.70;;
46006;SDS011;31738;50.188;8.524;2024-03-23T15:52:42;2.00;;;0.85;;
46006;SDS011;31738;50.188;8.524;2024-03-23T15:55:08;1.83;;;0.60;;